Historique des mesures à Cassis (13260), France
Quotidien Résumé Septembre 23, 2017 Unités:  Métrique    US   Métrique/US
« Précédent (Jour)
Suivant (Jour) »
Quotidien Hebdomadaire Mensuel Annuel Période au choix
  Maximum: Minimum: Moyenne:
Température: TemperatureC °C 17.4 °C 18.8 °C
Point de rosée: DewpointC °C 13.9 °C 14.8 °C
Humidité: Humidity % 68 % 74 %
Vitesse du vent: 0 km/h 0 km/h 1.4 km/h
Rafales: 0 km/h - -
Vent:- - SE
Pression: PressurehPa hPa 1016.1 hPa -
Précipitations: 0.0 mm    
Historical Graphs
 
 
Mesures pour : Septembre 23, 2017
Heure Temperature Point de rosée Pression Vent Vitesse du vent Rafales Humidité Pluie (par heure) Conditions
TemperatureC °C DewpointC °C PressurehPa hPa Calm     Humidity % HourlyPrecipMM mm SoftwareType W/m2
00:11 18.9 °C 15.4 °C 1018.5 hPa Calm     80 % 0.0 mm open2300-1.11 W/m2
01:11 18.2 °C 14.7 °C 1018.2 hPa Calm     80 % 0.0 mm open2300-1.11 W/m2
02:11 17.9 °C 14.4 °C 1018.2 hPa Calm     80 % 0.0 mm open2300-1.11 W/m2
03:11 17.5 °C 14.2 °C 1017.8 hPa Calm     81 % 0.0 mm open2300-1.11 W/m2
04:11 17.6 °C 14.1 °C 1017.5 hPa North 3.4 km/h 9.3 km/h 80 % 0.0 mm open2300-1.11 W/m2
05:11 17.7 °C 14.2 °C 1017.2 hPa North 4.2 km/h 4.2 km/h 80 % 0.0 mm open2300-1.11 W/m2
06:11 17.6 °C 14.1 °C 1017.2 hPa Calm     80 % 0.0 mm open2300-1.11 W/m2
07:11 17.4 °C 13.9 °C 1017.5 hPa Calm     80 % 0.0 mm open2300-1.11 W/m2
08:11 17.7 °C 14.4 °C 1017.8 hPa Calm     81 % 0.0 mm open2300-1.11 W/m2
09:11 18.6 °C 15.1 °C 1017.8 hPa Calm     80 % 0.0 mm open2300-1.11 W/m2
10:11 19.8 °C 15.9 °C 1018.2 hPa SSW 3.4 km/h 3.4 km/h 78 % 0.0 mm open2300-1.11 W/m2
11:11 20.5 °C 16.1 °C 1018.2 hPa SSW 1.8 km/h 12.7 km/h 76 % 0.0 mm open2300-1.11 W/m2
12:11 21.2 °C 16.3 °C 1017.8 hPa Calm   5.1 km/h 74 % 0.0 mm open2300-1.11 W/m2
13:11 22.6 °C 17.3 °C 1017.8 hPa Calm   2.3 km/h 72 % 0.0 mm open2300-1.11 W/m2
14:11 22.9 °C 17.4 °C 1017.5 hPa SW 8 km/h 13.2 km/h 71 % 0.0 mm open2300-1.11 W/m2
15:11 22.4 °C 17.1 °C 1017.2 hPa Calm     72 % 0.0 mm open2300-1.11 W/m2
16:11 22.6 °C 16.7 °C 1016.5 hPa South 6.9 km/h 7.6 km/h 69 % 0.0 mm open2300-1.11 W/m2
17:11 22.4 °C 16.2 °C 1016.1 hPa ESE 3.4 km/h 5.1 km/h 68 % 0.0 mm open2300-1.11 W/m2
18:11 21.9 °C 16.2 °C 1016.5 hPa SSW 2.9 km/h 4.7 km/h 70 % 0.0 mm open2300-1.11 W/m2
19:11 20.9 °C 16.1 °C 1016.5 hPa Calm     74 % 0.0 mm open2300-1.11 W/m2
20:11 19.9 °C 15.8 °C 1016.5 hPa Calm     77 % 0.0 mm open2300-1.11 W/m2
21:11 18.8 °C 15.1 °C 1016.5 hPa Calm     79 % 0.0 mm open2300-1.11 W/m2
22:11 18.1 °C 14.6 °C 1016.5 hPa Calm     80 % 0.0 mm open2300-1.11 W/m2
23:11 17.5 °C 14.2 °C 1016.5 hPa NE 1.8 km/h 9.3 km/h 81 % 0.0 mm open2300-1.11 W/m2
Observations météo à CASSIS
WU-History script by Weather Underground - 1 mb